sensor_id;sensor_type;location;lat;lon;timestamp;temperature;humidity
59128;DHT22;44912;52.754;5.994;2022-09-20T00:00:41;11.50;99.90
59128;DHT22;44912;52.754;5.994;2022-09-20T00:03:07;11.50;99.90
59128;DHT22;44912;52.754;5.994;2022-09-20T00:05:34;11.50;99.90
59128;DHT22;44912;52.754;5.994;2022-09-20T00:08:04;11.60;99.90
59128;DHT22;44912;52.754;5.994;2022-09-20T00:10:33;11.60;99.90
59128;DHT22;44912;52.754;5.994;2022-09-20T00:13:01;11.60;99.90
59128;DHT22;44912;52.754;5.994;2022-09-20T00:15:26;11.70;99.90
59128;DHT22;44912;52.754;5.994;2022-09-20T00:17:52;11.70;99.90
59128;DHT22;44912;52.754;5.994;2022-09-20T00:20:17;11.70;99.90
59128;DHT22;44912;52.754;5.994;2022-09-20T00:22:43;11.70;99.90
59128;DHT22;44912;52.754;5.994;2022-09-20T00:25:09;11.80;99.90
59128;DHT22;44912;52.754;5.994;2022-09-20T00:27:34;11.80;99.90
59128;DHT22;44912;52.754;5.994;2022-09-20T00:30:00;11.80;99.90
59128;DHT22;44912;52.754;5.994;2022-09-20T00:32:26;11.80;99.90
59128;DHT22;44912;52.754;5.994;2022-09-20T00:34:51;11.80;99.90
59128;DHT22;44912;52.754;5.994;2022-09-20T00:37:42;11.80;99.90
59128;DHT22;44912;52.754;5.994;2022-09-20T00:40:12;11.80;99.90
59128;DHT22;44912;52.754;5.994;2022-09-20T00:42:39;11.70;99.90
59128;DHT22;44912;52.754;5.994;2022-09-20T00:45:15;11.60;99.90
59128;DHT22;44912;52.754;5.994;2022-09-20T00:53:28;11.70;99.90
59128;DHT22;44912;52.754;5.994;2022-09-20T00:56:03;11.70;99.90
59128;DHT22;44912;52.754;5.994;2022-09-20T00:58:32;11.70;99.90
59128;DHT22;44912;52.754;5.994;2022-09-20T01:01:00;11.70;99.90
59128;DHT22;44912;52.754;5.994;2022-09-20T01:03:28;11.60;99.90
59128;DHT22;44912;52.754;5.994;2022-09-20T01:05:57;11.50;99.90
59128;DHT22;44912;52.754;5.994;2022-09-20T01:08:24;11.40;99.90
59128;DHT22;44912;52.754;5.994;2022-09-20T01:10:50;11.30;99.90
59128;DHT22;44912;52.754;5.994;2022-09-20T01:13:16;11.20;99.90
59128;DHT22;44912;52.754;5.994;2022-09-20T01:15:44;11.20;99.90
59128;DHT22;44912;52.754;5.994;2022-09-20T01:18:11;11.10;99.90
59128;DHT22;44912;52.754;5.994;2022-09-20T01:20:40;11.10;99.90
59128;DHT22;44912;52.754;5.994;2022-09-20T01:28:26;10.80;99.90
59128;DHT22;44912;52.754;5.994;2022-09-20T01:30:58;10.70;99.90
59128;DHT22;44912;52.754;5.994;2022-09-20T01:35:58;10.50;99.90
59128;DHT22;44912;52.754;5.994;2022-09-20T01:41:20;10.40;99.90
59128;DHT22;44912;52.754;5.994;2022-09-20T01:44:02;10.30;99.90
59128;DHT22;44912;52.754;5.994;2022-09-20T01:46:32;10.20;99.90
59128;DHT22;44912;52.754;5.994;2022-09-20T01:49:25;10.10;99.90
59128;DHT22;44912;52.754;5.994;2022-09-20T02:00:12;10.00;99.90
59128;DHT22;44912;52.754;5.994;2022-09-20T02:10:54;10.10;99.90
59128;DHT22;44912;52.754;5.994;2022-09-20T02:13:31;10.20;99.90
59128;DHT22;44912;52.754;5.994;2022-09-20T02:24:40;10.30;99.90
59128;DHT22;44912;52.754;5.994;2022-09-20T02:27:26;10.30;99.90
59128;DHT22;44912;52.754;5.994;2022-09-20T02:33:24;10.30;99.90
59128;DHT22;44912;52.754;5.994;2022-09-20T02:36:12;10.30;99.90
59128;DHT22;44912;52.754;5.994;2022-09-20T02:39:09;10.40;99.90
59128;DHT22;44912;52.754;5.994;2022-09-20T02:42:10;10.40;99.90
59128;DHT22;44912;52.754;5.994;2022-09-20T02:44:59;10.40;99.90
59128;DHT22;44912;52.754;5.994;2022-09-20T02:47:36;10.30;99.90
59128;DHT22;44912;52.754;5.994;2022-09-20T02:50:27;10.30;99.90
59128;DHT22;44912;52.754;5.994;2022-09-20T02:59:02;10.30;99.90
59128;DHT22;44912;52.754;5.994;2022-09-20T03:01:55;10.40;99.90
59128;DHT22;44912;52.754;5.994;2022-09-20T03:10:15;10.80;99.90
59128;DHT22;44912;52.754;5.994;2022-09-20T03:24:59;11.40;99.90
59128;DHT22;44912;52.754;5.994;2022-09-20T03:27:30;11.50;99.90
59128;DHT22;44912;52.754;5.994;2022-09-20T03:35:48;11.70;99.90
59128;DHT22;44912;52.754;5.994;2022-09-20T03:46:42;11.80;99.90
59128;DHT22;44912;52.754;5.994;2022-09-20T03:54:41;11.80;99.90
59128;DHT22;44912;52.754;5.994;2022-09-20T03:57:23;11.70;99.90
59128;DHT22;44912;52.754;5.994;2022-09-20T04:03:11;11.70;99.90
59128;DHT22;44912;52.754;5.994;2022-09-20T04:05:44;11.70;99.90
59128;DHT22;44912;52.754;5.994;2022-09-20T04:10:58;11.70;99.90
59128;DHT22;44912;52.754;5.994;2022-09-20T04:13:38;11.60;99.90
59128;DHT22;44912;52.754;5.994;2022-09-20T04:16:32;11.60;99.90
59128;DHT22;44912;52.754;5.994;2022-09-20T04:19:29;11.60;99.90
59128;DHT22;44912;52.754;5.994;2022-09-20T04:21:57;11.60;99.90
59128;DHT22;44912;52.754;5.994;2022-09-20T04:30:00;11.40;99.90
59128;DHT22;44912;52.754;5.994;2022-09-20T04:32:43;11.30;99.90
59128;DHT22;44912;52.754;5.994;2022-09-20T04:38:25;11.20;99.90
59128;DHT22;44912;52.754;5.994;2022-09-20T04:41:29;11.00;99.90
59128;DHT22;44912;52.754;5.994;2022-09-20T04:44:21;11.00;99.90
59128;DHT22;44912;52.754;5.994;2022-09-20T04:49:52;11.00;99.90
59128;DHT22;44912;52.754;5.994;2022-09-20T05:00:23;10.90;99.90
59128;DHT22;44912;52.754;5.994;2022-09-20T05:08:37;10.90;99.90
59128;DHT22;44912;52.754;5.994;2022-09-20T05:30:13;11.20;99.90
59128;DHT22;44912;52.754;5.994;2022-09-20T05:32:44;11.20;99.90
59128;DHT22;44912;52.754;5.994;2022-09-20T05:35:37;11.20;99.90
59128;DHT22;44912;52.754;5.994;2022-09-20T05:38:25;11.20;99.90
59128;DHT22;44912;52.754;5.994;2022-09-20T05:41:05;11.20;99.90
59128;DHT22;44912;52.754;5.994;2022-09-20T05:58:37;11.30;99.90
59128;DHT22;44912;52.754;5.994;2022-09-20T06:01:09;11.30;99.90
59128;DHT22;44912;52.754;5.994;2022-09-20T06:03:41;11.30;99.90
59128;DHT22;44912;52.754;5.994;2022-09-20T06:06:28;11.30;99.90
59128;DHT22;44912;52.754;5.994;2022-09-20T06:09:04;11.30;99.90
59128;DHT22;44912;52.754;5.994;2022-09-20T06:12:22;11.20;99.90
59128;DHT22;44912;52.754;5.994;2022-09-20T06:15:01;11.20;99.90
59128;DHT22;44912;52.754;5.994;2022-09-20T06:17:58;11.30;99.90
59128;DHT22;44912;52.754;5.994;2022-09-20T06:20:32;11.30;99.90
59128;DHT22;44912;52.754;5.994;2022-09-20T06:23:00;11.30;99.90
59128;DHT22;44912;52.754;5.994;2022-09-20T06:25:52;11.30;99.90
59128;DHT22;44912;52.754;5.994;2022-09-20T06:28:28;11.40;99.90
59128;DHT22;44912;52.754;5.994;2022-09-20T06:30:55;11.40;99.90
59128;DHT22;44912;52.754;5.994;2022-09-20T06:33:23;11.50;99.90
59128;DHT22;44912;52.754;5.994;2022-09-20T06:36:04;11.50;99.90
59128;DHT22;44912;52.754;5.994;2022-09-20T06:42:18;11.60;99.90
59128;DHT22;44912;52.754;5.994;2022-09-20T06:44:44;11.60;99.90
59128;DHT22;44912;52.754;5.994;2022-09-20T06:47:10;11.60;99.90
59128;DHT22;44912;52.754;5.994;2022-09-20T06:49:36;11.70;99.90
59128;DHT22;44912;52.754;5.994;2022-09-20T06:52:05;11.80;99.90
59128;DHT22;44912;52.754;5.994;2022-09-20T06:54:31;11.80;99.90
59128;DHT22;44912;52.754;5.994;2022-09-20T06:56:57;11.80;99.90
59128;DHT22;44912;52.754;5.994;2022-09-20T06:59:27;11.90;99.90
59128;DHT22;44912;52.754;5.994;2022-09-20T07:01:52;11.90;99.90
59128;DHT22;44912;52.754;5.994;2022-09-20T07:04:18;12.10;99.90
59128;DHT22;44912;52.754;5.994;2022-09-20T07:06:43;12.10;99.90
59128;DHT22;44912;52.754;5.994;2022-09-20T07:09:10;12.20;99.90
59128;DHT22;44912;52.754;5.994;2022-09-20T07:11:35;12.30;99.90
59128;DHT22;44912;52.754;5.994;2022-09-20T07:14:01;12.30;99.90
59128;DHT22;44912;52.754;5.994;2022-09-20T07:16:27;12.40;99.90
59128;DHT22;44912;52.754;5.994;2022-09-20T07:18:53;12.50;99.90
59128;DHT22;44912;52.754;5.994;2022-09-20T07:21:19;12.60;99.90
59128;DHT22;44912;52.754;5.994;2022-09-20T07:23:46;12.60;99.90
59128;DHT22;44912;52.754;5.994;2022-09-20T07:26:24;12.70;99.90
59128;DHT22;44912;52.754;5.994;2022-09-20T07:28:51;12.70;99.90
59128;DHT22;44912;52.754;5.994;2022-09-20T07:31:19;12.70;99.90
59128;DHT22;44912;52.754;5.994;2022-09-20T07:33:45;12.70;99.90
59128;DHT22;44912;52.754;5.994;2022-09-20T07:36:11;12.70;99.90
59128;DHT22;44912;52.754;5.994;2022-09-20T07:38:38;12.80;99.90
59128;DHT22;44912;52.754;5.994;2022-09-20T07:41:04;13.00;99.90
59128;DHT22;44912;52.754;5.994;2022-09-20T07:43:30;13.10;99.90
59128;DHT22;44912;52.754;5.994;2022-09-20T07:45:56;13.20;99.90
59128;DHT22;44912;52.754;5.994;2022-09-20T07:48:49;13.20;99.90
59128;DHT22;44912;52.754;5.994;2022-09-20T07:51:15;13.20;99.90
59128;DHT22;44912;52.754;5.994;2022-09-20T07:53:41;13.10;99.90
59128;DHT22;44912;52.754;5.994;2022-09-20T07:56:10;13.10;99.90
59128;DHT22;44912;52.754;5.994;2022-09-20T07:58:36;13.10;99.90
59128;DHT22;44912;52.754;5.994;2022-09-20T08:01:08;13.00;99.90
59128;DHT22;44912;52.754;5.994;2022-09-20T08:03:35;13.00;99.90
59128;DHT22;44912;52.754;5.994;2022-09-20T08:06:03;13.00;99.90
59128;DHT22;44912;52.754;5.994;2022-09-20T08:11:05;13.20;99.90
59128;DHT22;44912;52.754;5.994;2022-09-20T08:13:38;13.40;99.90
59128;DHT22;44912;52.754;5.994;2022-09-20T08:16:08;13.50;99.90
59128;DHT22;44912;52.754;5.994;2022-09-20T08:18:35;13.70;99.90
59128;DHT22;44912;52.754;5.994;2022-09-20T08:21:06;13.90;99.90
59128;DHT22;44912;52.754;5.994;2022-09-20T08:23:40;13.90;99.90
59128;DHT22;44912;52.754;5.994;2022-09-20T08:26:08;14.00;99.90
59128;DHT22;44912;52.754;5.994;2022-09-20T08:28:37;14.00;99.90
59128;DHT22;44912;52.754;5.994;2022-09-20T08:31:04;14.10;99.90
59128;DHT22;44912;52.754;5.994;2022-09-20T08:33:30;14.10;99.90
59128;DHT22;44912;52.754;5.994;2022-09-20T08:35:56;14.00;99.90
59128;DHT22;44912;52.754;5.994;2022-09-20T08:38:22;14.00;99.90
59128;DHT22;44912;52.754;5.994;2022-09-20T08:40:54;14.20;99.90
59128;DHT22;44912;52.754;5.994;2022-09-20T08:43:25;14.40;99.90
59128;DHT22;44912;52.754;5.994;2022-09-20T08:45:54;14.40;99.90
59128;DHT22;44912;52.754;5.994;2022-09-20T08:48:21;14.50;99.90
59128;DHT22;44912;52.754;5.994;2022-09-20T08:50:51;14.70;99.90
59128;DHT22;44912;52.754;5.994;2022-09-20T08:53:17;14.70;99.90
59128;DHT22;44912;52.754;5.994;2022-09-20T08:55:43;14.70;99.90
59128;DHT22;44912;52.754;5.994;2022-09-20T08:58:10;14.70;99.90
59128;DHT22;44912;52.754;5.994;2022-09-20T09:00:37;14.70;99.90
59128;DHT22;44912;52.754;5.994;2022-09-20T09:03:05;14.60;99.90
59128;DHT22;44912;52.754;5.994;2022-09-20T09:05:42;14.60;99.90
59128;DHT22;44912;52.754;5.994;2022-09-20T09:08:14;14.70;99.90
59128;DHT22;44912;52.754;5.994;2022-09-20T09:10:55;15.00;99.90
59128;DHT22;44912;52.754;5.994;2022-09-20T09:13:51;15.20;99.90
59128;DHT22;44912;52.754;5.994;2022-09-20T09:16:19;15.20;99.90
59128;DHT22;44912;52.754;5.994;2022-09-20T09:18:46;15.30;99.90
59128;DHT22;44912;52.754;5.994;2022-09-20T09:21:24;15.40;99.90
59128;DHT22;44912;52.754;5.994;2022-09-20T09:23:51;15.50;99.90
59128;DHT22;44912;52.754;5.994;2022-09-20T09:26:23;15.60;99.90
59128;DHT22;44912;52.754;5.994;2022-09-20T09:31:33;15.80;99.90
59128;DHT22;44912;52.754;5.994;2022-09-20T09:33:59;15.80;99.90
59128;DHT22;44912;52.754;5.994;2022-09-20T09:36:25;15.90;99.90
59128;DHT22;44912;52.754;5.994;2022-09-20T09:39:22;15.90;99.90
59128;DHT22;44912;52.754;5.994;2022-09-20T09:41:48;15.90;99.90
59128;DHT22;44912;52.754;5.994;2022-09-20T09:46:46;15.70;99.90
59128;DHT22;44912;52.754;5.994;2022-09-20T09:49:18;15.80;99.90
59128;DHT22;44912;52.754;5.994;2022-09-20T09:54:37;16.50;99.90
59128;DHT22;44912;52.754;5.994;2022-09-20T10:00:09;16.60;99.90
59128;DHT22;44912;52.754;5.994;2022-09-20T10:11:28;15.30;99.90
59128;DHT22;44912;52.754;5.994;2022-09-20T10:14:20;15.00;99.90
59128;DHT22;44912;52.754;5.994;2022-09-20T10:20:09;14.70;99.90
59128;DHT22;44912;52.754;5.994;2022-09-20T10:23:18;14.70;99.90
59128;DHT22;44912;52.754;5.994;2022-09-20T10:25:52;14.70;99.90
59128;DHT22;44912;52.754;5.994;2022-09-20T10:31:38;14.80;99.90
59128;DHT22;44912;52.754;5.994;2022-09-20T10:34:14;14.90;99.90
59128;DHT22;44912;52.754;5.994;2022-09-20T10:36:53;15.00;99.90
59128;DHT22;44912;52.754;5.994;2022-09-20T10:39:33;15.00;99.90
59128;DHT22;44912;52.754;5.994;2022-09-20T10:42:29;15.10;99.90
59128;DHT22;44912;52.754;5.994;2022-09-20T10:48:07;15.40;99.90
59128;DHT22;44912;52.754;5.994;2022-09-20T10:50:55;15.40;99.90
59128;DHT22;44912;52.754;5.994;2022-09-20T10:58:43;16.00;99.90
59128;DHT22;44912;52.754;5.994;2022-09-20T11:01:29;16.30;99.90
59128;DHT22;44912;52.754;5.994;2022-09-20T11:07:14;16.70;99.90
59128;DHT22;44912;52.754;5.994;2022-09-20T11:09:50;16.70;99.90
59128;DHT22;44912;52.754;5.994;2022-09-20T11:14:54;16.10;99.90
59128;DHT22;44912;52.754;5.994;2022-09-20T11:17:50;15.90;99.90
59128;DHT22;44912;52.754;5.994;2022-09-20T11:20:26;15.80;99.90
59128;DHT22;44912;52.754;5.994;2022-09-20T11:26:01;15.70;99.90
59128;DHT22;44912;52.754;5.994;2022-09-20T11:28:36;15.60;99.90
59128;DHT22;44912;52.754;5.994;2022-09-20T11:31:13;15.60;99.90
59128;DHT22;44912;52.754;5.994;2022-09-20T11:33:43;15.70;99.90
59128;DHT22;44912;52.754;5.994;2022-09-20T11:36:17;15.80;99.90
59128;DHT22;44912;52.754;5.994;2022-09-20T11:38:58;15.80;99.90
59128;DHT22;44912;52.754;5.994;2022-09-20T11:41:28;15.70;99.90
59128;DHT22;44912;52.754;5.994;2022-09-20T11:43:58;15.80;99.90
59128;DHT22;44912;52.754;5.994;2022-09-20T11:46:29;15.80;99.90
59128;DHT22;44912;52.754;5.994;2022-09-20T11:49:00;15.70;99.90
59128;DHT22;44912;52.754;5.994;2022-09-20T11:51:49;15.60;99.90
59128;DHT22;44912;52.754;5.994;2022-09-20T11:54:49;15.60;99.90
59128;DHT22;44912;52.754;5.994;2022-09-20T11:57:20;15.50;99.90
59128;DHT22;44912;52.754;5.994;2022-09-20T11:59:55;15.50;99.90
59128;DHT22;44912;52.754;5.994;2022-09-20T12:02:34;15.50;99.90
59128;DHT22;44912;52.754;5.994;2022-09-20T12:05:03;15.50;99.90
59128;DHT22;44912;52.754;5.994;2022-09-20T12:07:40;15.60;99.90
59128;DHT22;44912;52.754;5.994;2022-09-20T12:12:59;16.00;99.90
59128;DHT22;44912;52.754;5.994;2022-09-20T12:28:47;16.90;99.90
59128;DHT22;44912;52.754;5.994;2022-09-20T12:37:15;17.00;99.90
59128;DHT22;44912;52.754;5.994;2022-09-20T12:39:51;17.00;99.90
59128;DHT22;44912;52.754;5.994;2022-09-20T12:47:21;17.50;99.90
59128;DHT22;44912;52.754;5.994;2022-09-20T12:52:38;17.60;99.90
59128;DHT22;44912;52.754;5.994;2022-09-20T13:08:45;16.50;99.90
59128;DHT22;44912;52.754;5.994;2022-09-20T13:14:12;16.40;99.90
59128;DHT22;44912;52.754;5.994;2022-09-20T13:16:49;16.30;99.90
59128;DHT22;44912;52.754;5.994;2022-09-20T13:19:19;16.10;99.90
59128;DHT22;44912;52.754;5.994;2022-09-20T13:21:53;16.00;99.90
59128;DHT22;44912;52.754;5.994;2022-09-20T13:24:20;15.90;99.90
59128;DHT22;44912;52.754;5.994;2022-09-20T13:26:49;15.90;99.90
59128;DHT22;44912;52.754;5.994;2022-09-20T13:29:29;16.00;99.90
59128;DHT22;44912;52.754;5.994;2022-09-20T13:32:21;16.10;99.90
59128;DHT22;44912;52.754;5.994;2022-09-20T13:35:14;16.20;99.90
59128;DHT22;44912;52.754;5.994;2022-09-20T13:40:24;16.20;99.90
59128;DHT22;44912;52.754;5.994;2022-09-20T13:42:54;16.20;99.90
59128;DHT22;44912;52.754;5.994;2022-09-20T13:45:23;16.20;99.90
59128;DHT22;44912;52.754;5.994;2022-09-20T13:47:51;16.20;99.90
59128;DHT22;44912;52.754;5.994;2022-09-20T13:50:35;16.30;99.90
59128;DHT22;44912;52.754;5.994;2022-09-20T13:53:13;16.40;99.90
59128;DHT22;44912;52.754;5.994;2022-09-20T13:55:41;16.60;99.90
59128;DHT22;44912;52.754;5.994;2022-09-20T13:58:26;16.70;99.90
59128;DHT22;44912;52.754;5.994;2022-09-20T14:01:04;16.70;99.90
59128;DHT22;44912;52.754;5.994;2022-09-20T14:03:32;16.70;99.90
59128;DHT22;44912;52.754;5.994;2022-09-20T14:06:06;16.70;99.90
59128;DHT22;44912;52.754;5.994;2022-09-20T14:08:39;16.70;99.90
59128;DHT22;44912;52.754;5.994;2022-09-20T14:11:15;16.60;99.90
59128;DHT22;44912;52.754;5.994;2022-09-20T14:13:43;16.50;99.90
59128;DHT22;44912;52.754;5.994;2022-09-20T14:16:11;16.30;99.90
59128;DHT22;44912;52.754;5.994;2022-09-20T14:18:39;16.20;99.90
59128;DHT22;44912;52.754;5.994;2022-09-20T14:21:06;16.20;99.90
59128;DHT22;44912;52.754;5.994;2022-09-20T14:23:57;16.30;99.90
59128;DHT22;44912;52.754;5.994;2022-09-20T14:26:29;16.40;99.90
59128;DHT22;44912;52.754;5.994;2022-09-20T14:31:54;16.70;99.90
59128;DHT22;44912;52.754;5.994;2022-09-20T14:34:20;16.60;99.90
59128;DHT22;44912;52.754;5.994;2022-09-20T14:36:47;16.70;99.90
59128;DHT22;44912;52.754;5.994;2022-09-20T14:39:16;17.00;99.90
59128;DHT22;44912;52.754;5.994;2022-09-20T14:41:43;17.10;99.90
59128;DHT22;44912;52.754;5.994;2022-09-20T14:44:25;17.10;99.90
59128;DHT22;44912;52.754;5.994;2022-09-20T14:46:55;17.20;99.90
59128;DHT22;44912;52.754;5.994;2022-09-20T14:51:53;17.10;99.90
59128;DHT22;44912;52.754;5.994;2022-09-20T14:54:39;17.10;99.90
59128;DHT22;44912;52.754;5.994;2022-09-20T14:57:05;17.00;99.90
59128;DHT22;44912;52.754;5.994;2022-09-20T14:59:40;17.00;99.90
59128;DHT22;44912;52.754;5.994;2022-09-20T15:04:32;16.80;99.90
59128;DHT22;44912;52.754;5.994;2022-09-20T15:07:05;16.80;99.90
59128;DHT22;44912;52.754;5.994;2022-09-20T15:09:31;16.80;99.90
59128;DHT22;44912;52.754;5.994;2022-09-20T15:11:59;16.80;99.90
59128;DHT22;44912;52.754;5.994;2022-09-20T15:14:24;16.80;99.90
59128;DHT22;44912;52.754;5.994;2022-09-20T15:16:50;16.50;99.90
59128;DHT22;44912;52.754;5.994;2022-09-20T15:19:16;16.20;99.90
59128;DHT22;44912;52.754;5.994;2022-09-20T15:21:41;16.00;99.90
59128;DHT22;44912;52.754;5.994;2022-09-20T15:24:07;15.80;99.90
59128;DHT22;44912;52.754;5.994;2022-09-20T15:26:32;15.70;99.90
59128;DHT22;44912;52.754;5.994;2022-09-20T15:28:59;15.50;99.90
59128;DHT22;44912;52.754;5.994;2022-09-20T15:31:25;15.40;99.90
59128;DHT22;44912;52.754;5.994;2022-09-20T15:33:51;15.50;99.90
59128;DHT22;44912;52.754;5.994;2022-09-20T15:36:17;15.60;99.90
59128;DHT22;44912;52.754;5.994;2022-09-20T15:38:42;15.80;99.90
59128;DHT22;44912;52.754;5.994;2022-09-20T15:41:09;15.90;99.90
59128;DHT22;44912;52.754;5.994;2022-09-20T15:43:34;16.10;99.90
59128;DHT22;44912;52.754;5.994;2022-09-20T15:46:16;16.10;99.90
59128;DHT22;44912;52.754;5.994;2022-09-20T15:48:42;16.10;99.90
59128;DHT22;44912;52.754;5.994;2022-09-20T15:51:09;16.00;99.90
59128;DHT22;44912;52.754;5.994;2022-09-20T15:53:55;16.10;99.90
59128;DHT22;44912;52.754;5.994;2022-09-20T15:56:23;16.30;99.90
59128;DHT22;44912;52.754;5.994;2022-09-20T15:58:55;16.50;99.90
59128;DHT22;44912;52.754;5.994;2022-09-20T16:01:30;16.50;99.90
59128;DHT22;44912;52.754;5.994;2022-09-20T16:03:57;16.40;99.90
59128;DHT22;44912;52.754;5.994;2022-09-20T16:06:24;16.30;99.90
59128;DHT22;44912;52.754;5.994;2022-09-20T16:08:50;16.10;99.90
59128;DHT22;44912;52.754;5.994;2022-09-20T16:11:19;16.00;99.90
59128;DHT22;44912;52.754;5.994;2022-09-20T16:13:56;15.90;99.90
59128;DHT22;44912;52.754;5.994;2022-09-20T16:16:22;15.80;99.90
59128;DHT22;44912;52.754;5.994;2022-09-20T16:18:48;15.70;99.90
59128;DHT22;44912;52.754;5.994;2022-09-20T16:21:32;15.60;99.90
59128;DHT22;44912;52.754;5.994;2022-09-20T16:23:58;15.50;99.90
59128;DHT22;44912;52.754;5.994;2022-09-20T16:26:26;15.50;99.90
59128;DHT22;44912;52.754;5.994;2022-09-20T16:28:53;15.50;99.90
59128;DHT22;44912;52.754;5.994;2022-09-20T16:31:39;15.90;99.90
59128;DHT22;44912;52.754;5.994;2022-09-20T16:34:17;16.90;99.90
59128;DHT22;44912;52.754;5.994;2022-09-20T16:36:51;17.90;99.90
59128;DHT22;44912;52.754;5.994;2022-09-20T16:39:19;18.80;99.90
59128;DHT22;44912;52.754;5.994;2022-09-20T16:41:46;19.50;99.90
59128;DHT22;44912;52.754;5.994;2022-09-20T16:44:13;20.10;99.90
59128;DHT22;44912;52.754;5.994;2022-09-20T16:46:39;20.50;99.90
59128;DHT22;44912;52.754;5.994;2022-09-20T16:49:06;20.80;99.90
59128;DHT22;44912;52.754;5.994;2022-09-20T16:51:35;21.00;99.90
59128;DHT22;44912;52.754;5.994;2022-09-20T16:54:03;21.20;99.90
59128;DHT22;44912;52.754;5.994;2022-09-20T16:56:32;21.10;99.90
59128;DHT22;44912;52.754;5.994;2022-09-20T16:59:02;20.90;99.90
59128;DHT22;44912;52.754;5.994;2022-09-20T17:01:29;20.80;99.90
59128;DHT22;44912;52.754;5.994;2022-09-20T17:03:55;21.20;99.90
59128;DHT22;44912;52.754;5.994;2022-09-20T17:06:21;21.50;99.90
59128;DHT22;44912;52.754;5.994;2022-09-20T17:08:51;21.60;99.90
59128;DHT22;44912;52.754;5.994;2022-09-20T17:11:19;21.30;99.90
59128;DHT22;44912;52.754;5.994;2022-09-20T17:13:46;20.80;99.90
59128;DHT22;44912;52.754;5.994;2022-09-20T17:16:17;20.30;99.90
59128;DHT22;44912;52.754;5.994;2022-09-20T17:18:43;19.80;99.90
59128;DHT22;44912;52.754;5.994;2022-09-20T17:21:14;19.40;99.90
59128;DHT22;44912;52.754;5.994;2022-09-20T17:23:45;19.20;99.90
59128;DHT22;44912;52.754;5.994;2022-09-20T17:26:19;18.90;99.90
59128;DHT22;44912;52.754;5.994;2022-09-20T17:28:48;18.70;99.90
59128;DHT22;44912;52.754;5.994;2022-09-20T17:31:19;18.30;99.90
59128;DHT22;44912;52.754;5.994;2022-09-20T17:33:45;17.90;99.90
59128;DHT22;44912;52.754;5.994;2022-09-20T17:36:20;17.50;99.90
59128;DHT22;44912;52.754;5.994;2022-09-20T17:38:46;17.20;99.90
59128;DHT22;44912;52.754;5.994;2022-09-20T17:41:17;16.80;99.90
59128;DHT22;44912;52.754;5.994;2022-09-20T17:43:43;16.50;99.90
59128;DHT22;44912;52.754;5.994;2022-09-20T17:46:16;16.20;99.90
59128;DHT22;44912;52.754;5.994;2022-09-20T17:48:45;16.00;99.90
59128;DHT22;44912;52.754;5.994;2022-09-20T17:51:14;15.70;99.90
59128;DHT22;44912;52.754;5.994;2022-09-20T17:53:40;15.50;99.90
59128;DHT22;44912;52.754;5.994;2022-09-20T17:56:06;15.30;99.90
59128;DHT22;44912;52.754;5.994;2022-09-20T17:58:34;15.10;99.90
59128;DHT22;44912;52.754;5.994;2022-09-20T18:01:04;14.80;99.90
59128;DHT22;44912;52.754;5.994;2022-09-20T18:03:33;14.70;99.90
59128;DHT22;44912;52.754;5.994;2022-09-20T18:06:19;14.60;99.90
59128;DHT22;44912;52.754;5.994;2022-09-20T18:08:53;14.50;99.90
59128;DHT22;44912;52.754;5.994;2022-09-20T18:11:21;14.40;99.90
59128;DHT22;44912;52.754;5.994;2022-09-20T18:13:47;14.30;99.90
59128;DHT22;44912;52.754;5.994;2022-09-20T18:16:15;14.10;99.90
59128;DHT22;44912;52.754;5.994;2022-09-20T18:18:43;13.90;99.90
59128;DHT22;44912;52.754;5.994;2022-09-20T18:21:09;13.70;99.90
59128;DHT22;44912;52.754;5.994;2022-09-20T18:23:35;13.50;99.90
59128;DHT22;44912;52.754;5.994;2022-09-20T18:26:06;13.30;99.90
59128;DHT22;44912;52.754;5.994;2022-09-20T18:28:59;13.20;99.90
59128;DHT22;44912;52.754;5.994;2022-09-20T18:31:51;13.10;99.90
59128;DHT22;44912;52.754;5.994;2022-09-20T18:34:20;13.00;99.90
59128;DHT22;44912;52.754;5.994;2022-09-20T18:36:58;12.90;99.90
59128;DHT22;44912;52.754;5.994;2022-09-20T18:39:29;12.90;99.90
59128;DHT22;44912;52.754;5.994;2022-09-20T18:41:56;12.80;99.90
59128;DHT22;44912;52.754;5.994;2022-09-20T18:44:22;12.80;99.90
59128;DHT22;44912;52.754;5.994;2022-09-20T18:46:49;12.70;99.90
59128;DHT22;44912;52.754;5.994;2022-09-20T18:49:17;12.60;99.90
59128;DHT22;44912;52.754;5.994;2022-09-20T18:51:44;12.40;99.90
59128;DHT22;44912;52.754;5.994;2022-09-20T18:54:11;12.40;99.90
59128;DHT22;44912;52.754;5.994;2022-09-20T18:56:41;12.20;99.90
59128;DHT22;44912;52.754;5.994;2022-09-20T18:59:16;12.20;99.90
59128;DHT22;44912;52.754;5.994;2022-09-20T19:04:39;12.00;99.90
59128;DHT22;44912;52.754;5.994;2022-09-20T19:07:25;11.90;99.90
59128;DHT22;44912;52.754;5.994;2022-09-20T19:10:26;11.80;99.90
59128;DHT22;44912;52.754;5.994;2022-09-20T19:13:35;11.70;99.90
59128;DHT22;44912;52.754;5.994;2022-09-20T19:16:23;11.60;99.90
59128;DHT22;44912;52.754;5.994;2022-09-20T19:19:10;11.60;99.90
59128;DHT22;44912;52.754;5.994;2022-09-20T19:26:57;11.60;99.90
59128;DHT22;44912;52.754;5.994;2022-09-20T19:29:25;11.60;99.90
59128;DHT22;44912;52.754;5.994;2022-09-20T19:31:53;11.50;99.90
59128;DHT22;44912;52.754;5.994;2022-09-20T19:34:22;11.50;99.90
59128;DHT22;44912;52.754;5.994;2022-09-20T19:50:29;10.70;99.90
59128;DHT22;44912;52.754;5.994;2022-09-20T19:53:00;10.60;99.90
59128;DHT22;44912;52.754;5.994;2022-09-20T19:55:32;10.60;99.90
59128;DHT22;44912;52.754;5.994;2022-09-20T19:57:58;10.60;99.90
59128;DHT22;44912;52.754;5.994;2022-09-20T20:00:24;10.50;99.90
59128;DHT22;44912;52.754;5.994;2022-09-20T20:02:50;10.50;99.90
59128;DHT22;44912;52.754;5.994;2022-09-20T20:05:17;10.40;99.90
59128;DHT22;44912;52.754;5.994;2022-09-20T20:13:37;10.20;99.90
59128;DHT22;44912;52.754;5.994;2022-09-20T20:19:24;10.00;99.90
59128;DHT22;44912;52.754;5.994;2022-09-20T20:21:59;9.90;99.90
59128;DHT22;44912;52.754;5.994;2022-09-20T20:24:50;9.90;99.90
59128;DHT22;44912;52.754;5.994;2022-09-20T20:27:16;9.90;99.90
59128;DHT22;44912;52.754;5.994;2022-09-20T20:29:42;9.90;99.90
59128;DHT22;44912;52.754;5.994;2022-09-20T20:32:08;9.80;99.90
59128;DHT22;44912;52.754;5.994;2022-09-20T20:34:34;9.80;99.90
59128;DHT22;44912;52.754;5.994;2022-09-20T20:37:00;9.70;99.90
59128;DHT22;44912;52.754;5.994;2022-09-20T20:39:27;9.60;99.90
59128;DHT22;44912;52.754;5.994;2022-09-20T20:41:56;9.50;99.90
59128;DHT22;44912;52.754;5.994;2022-09-20T20:44:23;9.50;99.90
59128;DHT22;44912;52.754;5.994;2022-09-20T20:46:49;9.40;99.90
59128;DHT22;44912;52.754;5.994;2022-09-20T20:49:15;9.40;99.90
59128;DHT22;44912;52.754;5.994;2022-09-20T20:51:41;9.40;99.90
59128;DHT22;44912;52.754;5.994;2022-09-20T20:54:06;9.40;99.90
59128;DHT22;44912;52.754;5.994;2022-09-20T20:56:32;9.40;99.90